sensor_id;sensor_type;location;lat;lon;timestamp;P1;durP1;ratioP1;P2;durP2;ratioP2
21905;SDS011;11117;48.644;9.006;2023-05-10T00:00:19;0.73;;;0.70;;
21905;SDS011;11117;48.644;9.006;2023-05-10T00:02:44;2.10;;;0.60;;
21905;SDS011;11117;48.644;9.006;2023-05-10T00:05:10;0.70;;;0.60;;
21905;SDS011;11117;48.644;9.006;2023-05-10T00:07:35;0.67;;;0.67;;
21905;SDS011;11117;48.644;9.006;2023-05-10T00:10:01;0.70;;;0.70;;
21905;SDS011;11117;48.644;9.006;2023-05-10T00:12:26;2.17;;;0.90;;
21905;SDS011;11117;48.644;9.006;2023-05-10T00:14:52;0.60;;;0.50;;
21905;SDS011;11117;48.644;9.006;2023-05-10T00:17:17;0.60;;;0.30;;
21905;SDS011;11117;48.644;9.006;2023-05-10T00:19:43;0.70;;;0.47;;
21905;SDS011;11117;48.644;9.006;2023-05-10T00:22:09;0.40;;;0.40;;
21905;SDS011;11117;48.644;9.006;2023-05-10T00:24:35;1.43;;;0.50;;
21905;SDS011;11117;48.644;9.006;2023-05-10T00:27:00;0.70;;;0.30;;
21905;SDS011;11117;48.644;9.006;2023-05-10T00:29:26;0.50;;;0.50;;
21905;SDS011;11117;48.644;9.006;2023-05-10T00:31:51;0.40;;;0.40;;
21905;SDS011;11117;48.644;9.006;2023-05-10T00:34:17;2.70;;;0.40;;
21905;SDS011;11117;48.644;9.006;2023-05-10T00:36:42;1.30;;;0.40;;
21905;SDS011;11117;48.644;9.006;2023-05-10T00:39:08;0.40;;;0.40;;
21905;SDS011;11117;48.644;9.006;2023-05-10T00:41:33;2.10;;;0.50;;
21905;SDS011;11117;48.644;9.006;2023-05-10T00:43:59;0.87;;;0.50;;
21905;SDS011;11117;48.644;9.006;2023-05-10T00:46:24;1.20;;;0.50;;
21905;SDS011;11117;48.644;9.006;2023-05-10T00:48:51;0.80;;;0.50;;
21905;SDS011;11117;48.644;9.006;2023-05-10T00:51:17;2.93;;;0.40;;
21905;SDS011;11117;48.644;9.006;2023-05-10T00:53:46;1.03;;;0.87;;
21905;SDS011;11117;48.644;9.006;2023-05-10T00:56:12;0.50;;;0.40;;
21905;SDS011;11117;48.644;9.006;2023-05-10T00:58:39;0.30;;;0.30;;
21905;SDS011;11117;48.644;9.006;2023-05-10T01:01:04;0.63;;;0.37;;
21905;SDS011;11117;48.644;9.006;2023-05-10T01:03:31;4.63;;;0.40;;
21905;SDS011;11117;48.644;9.006;2023-05-10T01:05:57;1.83;;;0.37;;
21905;SDS011;11117;48.644;9.006;2023-05-10T01:08:23;2.63;;;0.30;;
21905;SDS011;11117;48.644;9.006;2023-05-10T01:10:49;0.77;;;0.20;;
21905;SDS011;11117;48.644;9.006;2023-05-10T01:13:27;1.80;;;0.40;;
21905;SDS011;11117;48.644;9.006;2023-05-10T01:16:00;3.93;;;0.50;;
21905;SDS011;11117;48.644;9.006;2023-05-10T01:18:25;3.60;;;0.47;;
21905;SDS011;11117;48.644;9.006;2023-05-10T01:20:57;1.73;;;0.43;;
21905;SDS011;11117;48.644;9.006;2023-05-10T01:23:58;1.00;;;0.43;;
21905;SDS011;11117;48.644;9.006;2023-05-10T01:26:52;2.43;;;0.20;;
21905;SDS011;11117;48.644;9.006;2023-05-10T01:32:27;2.07;;;0.20;;
21905;SDS011;11117;48.644;9.006;2023-05-10T01:35:03;2.00;;;0.20;;
21905;SDS011;11117;48.644;9.006;2023-05-10T01:37:52;4.33;;;0.23;;
21905;SDS011;11117;48.644;9.006;2023-05-10T01:43:33;1.03;;;0.30;;
21905;SDS011;11117;48.644;9.006;2023-05-10T01:46:09;1.80;;;0.20;;
21905;SDS011;11117;48.644;9.006;2023-05-10T01:48:44;1.73;;;0.30;;
21905;SDS011;11117;48.644;9.006;2023-05-10T01:51:15;0.47;;;0.30;;
21905;SDS011;11117;48.644;9.006;2023-05-10T01:53:44;1.47;;;0.30;;
21905;SDS011;11117;48.644;9.006;2023-05-10T01:56:12;1.27;;;0.40;;
21905;SDS011;11117;48.644;9.006;2023-05-10T01:58:40;0.60;;;0.30;;
21905;SDS011;11117;48.644;9.006;2023-05-10T02:01:10;0.30;;;0.23;;
21905;SDS011;11117;48.644;9.006;2023-05-10T02:03:36;2.97;;;0.30;;
21905;SDS011;11117;48.644;9.006;2023-05-10T02:06:04;0.30;;;0.30;;
21905;SDS011;11117;48.644;9.006;2023-05-10T02:08:31;0.43;;;0.40;;
21905;SDS011;11117;48.644;9.006;2023-05-10T02:11:00;0.47;;;0.30;;
21905;SDS011;11117;48.644;9.006;2023-05-10T02:13:26;0.97;;;0.40;;
21905;SDS011;11117;48.644;9.006;2023-05-10T02:15:54;1.13;;;0.40;;
21905;SDS011;11117;48.644;9.006;2023-05-10T02:18:21;3.60;;;0.50;;
21905;SDS011;11117;48.644;9.006;2023-05-10T02:20:48;4.03;;;0.50;;
21905;SDS011;11117;48.644;9.006;2023-05-10T02:23:16;2.43;;;0.60;;
21905;SDS011;11117;48.644;9.006;2023-05-10T02:25:43;1.90;;;0.63;;
21905;SDS011;11117;48.644;9.006;2023-05-10T02:28:09;0.40;;;0.40;;
21905;SDS011;11117;48.644;9.006;2023-05-10T02:30:36;3.37;;;0.50;;
21905;SDS011;11117;48.644;9.006;2023-05-10T02:33:03;1.07;;;0.50;;
21905;SDS011;11117;48.644;9.006;2023-05-10T02:35:30;0.77;;;0.50;;
21905;SDS011;11117;48.644;9.006;2023-05-10T02:37:56;5.30;;;0.60;;
21905;SDS011;11117;48.644;9.006;2023-05-10T02:40:24;0.60;;;0.60;;
21905;SDS011;11117;48.644;9.006;2023-05-10T02:42:52;1.37;;;0.50;;
21905;SDS011;11117;48.644;9.006;2023-05-10T02:45:21;2.00;;;0.60;;
21905;SDS011;11117;48.644;9.006;2023-05-10T02:47:50;0.67;;;0.67;;
21905;SDS011;11117;48.644;9.006;2023-05-10T02:50:16;2.40;;;0.60;;
21905;SDS011;11117;48.644;9.006;2023-05-10T02:52:46;1.17;;;0.70;;
21905;SDS011;11117;48.644;9.006;2023-05-10T02:55:15;1.03;;;0.90;;
21905;SDS011;11117;48.644;9.006;2023-05-10T02:57:53;0.70;;;0.70;;
21905;SDS011;11117;48.644;9.006;2023-05-10T03:00:24;2.57;;;0.90;;
21905;SDS011;11117;48.644;9.006;2023-05-10T03:02:50;6.57;;;1.00;;
21905;SDS011;11117;48.644;9.006;2023-05-10T03:05:15;2.93;;;1.00;;
21905;SDS011;11117;48.644;9.006;2023-05-10T03:07:41;3.50;;;0.90;;
21905;SDS011;11117;48.644;9.006;2023-05-10T03:10:06;1.20;;;1.00;;
21905;SDS011;11117;48.644;9.006;2023-05-10T03:18:23;1.37;;;0.70;;
21905;SDS011;11117;48.644;9.006;2023-05-10T03:20:59;0.60;;;0.60;;
21905;SDS011;11117;48.644;9.006;2023-05-10T03:24:02;3.70;;;0.80;;
21905;SDS011;11117;48.644;9.006;2023-05-10T03:26:30;0.90;;;0.90;;
21905;SDS011;11117;48.644;9.006;2023-05-10T03:28:56;0.73;;;0.70;;
21905;SDS011;11117;48.644;9.006;2023-05-10T03:31:23;6.07;;;1.10;;
21905;SDS011;11117;48.644;9.006;2023-05-10T03:33:49;1.70;;;0.90;;
21905;SDS011;11117;48.644;9.006;2023-05-10T03:36:16;0.90;;;0.80;;
21905;SDS011;11117;48.644;9.006;2023-05-10T03:38:42;0.90;;;0.90;;
21905;SDS011;11117;48.644;9.006;2023-05-10T03:41:07;1.87;;;0.80;;
21905;SDS011;11117;48.644;9.006;2023-05-10T03:43:33;2.37;;;0.80;;
21905;SDS011;11117;48.644;9.006;2023-05-10T03:46:01;4.57;;;1.03;;
21905;SDS011;11117;48.644;9.006;2023-05-10T03:48:30;1.20;;;0.80;;
21905;SDS011;11117;48.644;9.006;2023-05-10T03:50:57;0.83;;;0.83;;
21905;SDS011;11117;48.644;9.006;2023-05-10T03:53:22;1.17;;;1.07;;
21905;SDS011;11117;48.644;9.006;2023-05-10T03:55:48;4.83;;;1.10;;
21905;SDS011;11117;48.644;9.006;2023-05-10T03:58:14;1.97;;;1.20;;
21905;SDS011;11117;48.644;9.006;2023-05-10T04:00:40;2.23;;;0.90;;
21905;SDS011;11117;48.644;9.006;2023-05-10T04:03:05;4.30;;;1.00;;
21905;SDS011;11117;48.644;9.006;2023-05-10T04:05:31;2.97;;;0.83;;
21905;SDS011;11117;48.644;9.006;2023-05-10T04:07:56;0.83;;;0.83;;
21905;SDS011;11117;48.644;9.006;2023-05-10T04:10:22;1.47;;;1.20;;
21905;SDS011;11117;48.644;9.006;2023-05-10T04:12:47;1.10;;;0.90;;
21905;SDS011;11117;48.644;9.006;2023-05-10T04:15:13;1.50;;;1.13;;
21905;SDS011;11117;48.644;9.006;2023-05-10T04:17:38;0.93;;;0.93;;
21905;SDS011;11117;48.644;9.006;2023-05-10T04:20:04;3.27;;;1.30;;
21905;SDS011;11117;48.644;9.006;2023-05-10T04:22:31;1.90;;;1.23;;
21905;SDS011;11117;48.644;9.006;2023-05-10T04:24:57;1.93;;;1.07;;
21905;SDS011;11117;48.644;9.006;2023-05-10T04:27:22;6.67;;;1.60;;
21905;SDS011;11117;48.644;9.006;2023-05-10T04:29:48;4.10;;;1.33;;
21905;SDS011;11117;48.644;9.006;2023-05-10T04:32:13;12.30;;;1.30;;
21905;SDS011;11117;48.644;9.006;2023-05-10T04:34:39;96.20;;;3.93;;
21905;SDS011;11117;48.644;9.006;2023-05-10T04:37:06;9.23;;;1.90;;
21905;SDS011;11117;48.644;9.006;2023-05-10T04:39:32;3.50;;;1.60;;
21905;SDS011;11117;48.644;9.006;2023-05-10T04:41:58;2.63;;;1.40;;
21905;SDS011;11117;48.644;9.006;2023-05-10T04:44:23;2.03;;;1.50;;
21905;SDS011;11117;48.644;9.006;2023-05-10T04:46:49;1.30;;;1.20;;
21905;SDS011;11117;48.644;9.006;2023-05-10T04:49:14;1.73;;;1.40;;
21905;SDS011;11117;48.644;9.006;2023-05-10T04:51:40;4.27;;;1.37;;
21905;SDS011;11117;48.644;9.006;2023-05-10T04:54:05;2.37;;;1.00;;
21905;SDS011;11117;48.644;9.006;2023-05-10T04:56:32;1.90;;;1.37;;
21905;SDS011;11117;48.644;9.006;2023-05-10T04:58:58;5.30;;;1.30;;
21905;SDS011;11117;48.644;9.006;2023-05-10T05:01:23;2.53;;;1.10;;
21905;SDS011;11117;48.644;9.006;2023-05-10T05:03:49;1.57;;;1.07;;
21905;SDS011;11117;48.644;9.006;2023-05-10T05:06:14;1.10;;;1.00;;
21905;SDS011;11117;48.644;9.006;2023-05-10T05:08:40;1.03;;;0.93;;
21905;SDS011;11117;48.644;9.006;2023-05-10T05:11:05;2.03;;;1.20;;
21905;SDS011;11117;48.644;9.006;2023-05-10T05:13:31;2.47;;;1.17;;
21905;SDS011;11117;48.644;9.006;2023-05-10T05:15:56;2.10;;;1.40;;
21905;SDS011;11117;48.644;9.006;2023-05-10T05:18:22;3.57;;;1.10;;
21905;SDS011;11117;48.644;9.006;2023-05-10T05:20:47;1.87;;;1.37;;
21905;SDS011;11117;48.644;9.006;2023-05-10T05:23:13;3.50;;;1.40;;
21905;SDS011;11117;48.644;9.006;2023-05-10T05:25:38;2.03;;;1.60;;
21905;SDS011;11117;48.644;9.006;2023-05-10T05:28:04;7.73;;;1.57;;
21905;SDS011;11117;48.644;9.006;2023-05-10T05:30:30;2.43;;;1.43;;
21905;SDS011;11117;48.644;9.006;2023-05-10T05:32:55;4.63;;;1.40;;
21905;SDS011;11117;48.644;9.006;2023-05-10T05:35:21;3.67;;;1.40;;
21905;SDS011;11117;48.644;9.006;2023-05-10T05:37:46;1.50;;;1.40;;
21905;SDS011;11117;48.644;9.006;2023-05-10T05:40:12;3.90;;;1.40;;
21905;SDS011;11117;48.644;9.006;2023-05-10T05:42:38;6.73;;;3.30;;
21905;SDS011;11117;48.644;9.006;2023-05-10T05:45:03;2.53;;;2.27;;
21905;SDS011;11117;48.644;9.006;2023-05-10T05:47:29;2.40;;;2.20;;
21905;SDS011;11117;48.644;9.006;2023-05-10T05:49:55;6.23;;;2.00;;
21905;SDS011;11117;48.644;9.006;2023-05-10T05:52:20;2.23;;;1.53;;
21905;SDS011;11117;48.644;9.006;2023-05-10T05:54:46;2.20;;;1.30;;
21905;SDS011;11117;48.644;9.006;2023-05-10T05:57:11;2.03;;;1.33;;
21905;SDS011;11117;48.644;9.006;2023-05-10T05:59:37;4.60;;;1.87;;
21905;SDS011;11117;48.644;9.006;2023-05-10T06:02:03;3.00;;;1.80;;
21905;SDS011;11117;48.644;9.006;2023-05-10T06:04:29;2.17;;;1.50;;
21905;SDS011;11117;48.644;9.006;2023-05-10T06:06:54;1.57;;;1.23;;
21905;SDS011;11117;48.644;9.006;2023-05-10T06:09:20;1.53;;;1.27;;
21905;SDS011;11117;48.644;9.006;2023-05-10T06:11:45;3.83;;;1.70;;
21905;SDS011;11117;48.644;9.006;2023-05-10T06:14:11;3.40;;;1.20;;
21905;SDS011;11117;48.644;9.006;2023-05-10T06:16:36;2.27;;;1.27;;
21905;SDS011;11117;48.644;9.006;2023-05-10T06:19:02;2.37;;;1.07;;
21905;SDS011;11117;48.644;9.006;2023-05-10T06:21:27;5.13;;;1.27;;
21905;SDS011;11117;48.644;9.006;2023-05-10T06:23:53;2.07;;;1.30;;
21905;SDS011;11117;48.644;9.006;2023-05-10T06:26:19;2.40;;;1.40;;
21905;SDS011;11117;48.644;9.006;2023-05-10T06:28:44;2.70;;;1.10;;
21905;SDS011;11117;48.644;9.006;2023-05-10T06:31:10;3.70;;;1.20;;
21905;SDS011;11117;48.644;9.006;2023-05-10T06:33:35;1.40;;;1.23;;
21905;SDS011;11117;48.644;9.006;2023-05-10T06:36:01;3.13;;;2.60;;
21905;SDS011;11117;48.644;9.006;2023-05-10T06:38:26;2.80;;;2.50;;
21905;SDS011;11117;48.644;9.006;2023-05-10T06:40:52;1.97;;;1.27;;
21905;SDS011;11117;48.644;9.006;2023-05-10T06:43:17;3.13;;;1.30;;
21905;SDS011;11117;48.644;9.006;2023-05-10T06:45:43;1.75;;;1.13;;
21905;SDS011;11117;48.644;9.006;2023-05-10T06:48:08;4.20;;;1.20;;
21905;SDS011;11117;48.644;9.006;2023-05-10T06:50:34;4.33;;;1.40;;
21905;SDS011;11117;48.644;9.006;2023-05-10T06:53:00;5.55;;;2.22;;
21905;SDS011;11117;48.644;9.006;2023-05-10T06:55:26;4.77;;;1.60;;
21905;SDS011;11117;48.644;9.006;2023-05-10T06:57:51;8.23;;;1.70;;
21905;SDS011;11117;48.644;9.006;2023-05-10T07:00:17;21.38;;;2.72;;
21905;SDS011;11117;48.644;9.006;2023-05-10T07:02:43;4.60;;;1.40;;
21905;SDS011;11117;48.644;9.006;2023-05-10T07:05:09;3.88;;;1.10;;
21905;SDS011;11117;48.644;9.006;2023-05-10T07:07:35;2.05;;;1.15;;
21905;SDS011;11117;48.644;9.006;2023-05-10T07:10:01;15.13;;;2.55;;
21905;SDS011;11117;48.644;9.006;2023-05-10T07:12:27;6.63;;;1.65;;
21905;SDS011;11117;48.644;9.006;2023-05-10T07:14:52;1.15;;;1.02;;
21905;SDS011;11117;48.644;9.006;2023-05-10T07:17:18;2.67;;;1.20;;
21905;SDS011;11117;48.644;9.006;2023-05-10T07:19:43;1.20;;;1.10;;
21905;SDS011;11117;48.644;9.006;2023-05-10T07:22:10;3.50;;;1.15;;
21905;SDS011;11117;48.644;9.006;2023-05-10T07:24:36;3.50;;;1.23;;
21905;SDS011;11117;48.644;9.006;2023-05-10T07:27:01;2.67;;;0.93;;
21905;SDS011;11117;48.644;9.006;2023-05-10T07:29:27;3.50;;;1.20;;
21905;SDS011;11117;48.644;9.006;2023-05-10T07:31:53;4.25;;;1.10;;
21905;SDS011;11117;48.644;9.006;2023-05-10T07:34:18;2.90;;;0.80;;
21905;SDS011;11117;48.644;9.006;2023-05-10T07:36:44;1.05;;;0.60;;
21905;SDS011;11117;48.644;9.006;2023-05-10T07:39:09;1.45;;;0.52;;
21905;SDS011;11117;48.644;9.006;2023-05-10T07:41:35;2.72;;;0.60;;
21905;SDS011;11117;48.644;9.006;2023-05-10T07:44:00;4.35;;;0.80;;
21905;SDS011;11117;48.644;9.006;2023-05-10T07:46:26;3.22;;;0.60;;
21905;SDS011;11117;48.644;9.006;2023-05-10T07:48:51;1.58;;;1.00;;
21905;SDS011;11117;48.644;9.006;2023-05-10T07:51:17;4.88;;;0.70;;
21905;SDS011;11117;48.644;9.006;2023-05-10T07:53:42;1.20;;;0.63;;
21905;SDS011;11117;48.644;9.006;2023-05-10T07:56:27;4.50;;;0.70;;
21905;SDS011;11117;48.644;9.006;2023-05-10T07:58:54;6.70;;;1.13;;
21905;SDS011;11117;48.644;9.006;2023-05-10T08:01:30;0.57;;;0.55;;
21905;SDS011;11117;48.644;9.006;2023-05-10T08:03:56;1.55;;;0.40;;
21905;SDS011;11117;48.644;9.006;2023-05-10T08:06:21;3.17;;;0.70;;
21905;SDS011;11117;48.644;9.006;2023-05-10T08:08:47;5.30;;;0.70;;
21905;SDS011;11117;48.644;9.006;2023-05-10T08:11:13;2.10;;;0.70;;
21905;SDS011;11117;48.644;9.006;2023-05-10T08:13:39;1.60;;;0.43;;
21905;SDS011;11117;48.644;9.006;2023-05-10T08:16:04;1.95;;;1.00;;
21905;SDS011;11117;48.644;9.006;2023-05-10T08:18:30;4.18;;;1.45;;
21905;SDS011;11117;48.644;9.006;2023-05-10T08:20:55;0.60;;;0.52;;
21905;SDS011;11117;48.644;9.006;2023-05-10T08:23:21;2.58;;;0.90;;
21905;SDS011;11117;48.644;9.006;2023-05-10T08:25:46;4.18;;;0.50;;
21905;SDS011;11117;48.644;9.006;2023-05-10T08:28:12;3.45;;;0.60;;
21905;SDS011;11117;48.644;9.006;2023-05-10T08:30:37;0.88;;;0.40;;
21905;SDS011;11117;48.644;9.006;2023-05-10T08:33:03;5.28;;;0.60;;
21905;SDS011;11117;48.644;9.006;2023-05-10T08:35:28;3.17;;;0.73;;
21905;SDS011;11117;48.644;9.006;2023-05-10T08:37:54;0.65;;;0.40;;
21905;SDS011;11117;48.644;9.006;2023-05-10T08:40:19;0.30;;;0.30;;
21905;SDS011;11117;48.644;9.006;2023-05-10T08:42:49;0.70;;;0.40;;
21905;SDS011;11117;48.644;9.006;2023-05-10T08:45:20;0.60;;;0.32;;
21905;SDS011;11117;48.644;9.006;2023-05-10T08:47:48;0.60;;;0.40;;
21905;SDS011;11117;48.644;9.006;2023-05-10T08:50:14;2.60;;;0.50;;
21905;SDS011;11117;48.644;9.006;2023-05-10T08:52:41;0.20;;;0.20;;
21905;SDS011;11117;48.644;9.006;2023-05-10T08:55:08;0.43;;;0.30;;
21905;SDS011;11117;48.644;9.006;2023-05-10T08:57:35;1.45;;;0.32;;
21905;SDS011;11117;48.644;9.006;2023-05-10T09:00:01;4.38;;;1.00;;
21905;SDS011;11117;48.644;9.006;2023-05-10T09:02:27;1.10;;;1.00;;
21905;SDS011;11117;48.644;9.006;2023-05-10T09:04:52;3.20;;;0.95;;
21905;SDS011;11117;48.644;9.006;2023-05-10T09:07:18;3.72;;;2.47;;
21905;SDS011;11117;48.644;9.006;2023-05-10T09:09:44;1.33;;;0.50;;
21905;SDS011;11117;48.644;9.006;2023-05-10T09:12:11;3.22;;;0.30;;
21905;SDS011;11117;48.644;9.006;2023-05-10T09:14:38;0.77;;;0.28;;
21905;SDS011;11117;48.644;9.006;2023-05-10T09:17:04;3.90;;;0.30;;
21905;SDS011;11117;48.644;9.006;2023-05-10T09:19:30;0.30;;;0.30;;
21905;SDS011;11117;48.644;9.006;2023-05-10T09:21:55;6.15;;;1.20;;
21905;SDS011;11117;48.644;9.006;2023-05-10T09:24:25;1.60;;;0.20;;
21905;SDS011;11117;48.644;9.006;2023-05-10T09:26:51;2.38;;;0.30;;
21905;SDS011;11117;48.644;9.006;2023-05-10T09:29:16;1.50;;;0.30;;
21905;SDS011;11117;48.644;9.006;2023-05-10T09:31:46;0.38;;;0.20;;
21905;SDS011;11117;48.644;9.006;2023-05-10T09:34:19;0.30;;;0.30;;
21905;SDS011;11117;48.644;9.006;2023-05-10T09:36:54;0.28;;;0.20;;
21905;SDS011;11117;48.644;9.006;2023-05-10T09:39:21;1.20;;;0.30;;
21905;SDS011;11117;48.644;9.006;2023-05-10T09:41:55;1.30;;;0.30;;
21905;SDS011;11117;48.644;9.006;2023-05-10T09:44:21;1.75;;;0.40;;
21905;SDS011;11117;48.644;9.006;2023-05-10T09:46:49;1.65;;;0.32;;
21905;SDS011;11117;48.644;9.006;2023-05-10T09:49:15;1.58;;;0.40;;
21905;SDS011;11117;48.644;9.006;2023-05-10T09:51:41;0.98;;;0.30;;
21905;SDS011;11117;48.644;9.006;2023-05-10T09:54:10;0.77;;;0.20;;
21905;SDS011;11117;48.644;9.006;2023-05-10T09:56:36;0.45;;;0.20;;
21905;SDS011;11117;48.644;9.006;2023-05-10T09:59:02;0.20;;;0.20;;
21905;SDS011;11117;48.644;9.006;2023-05-10T10:01:28;1.90;;;0.20;;
21905;SDS011;11117;48.644;9.006;2023-05-10T10:03:54;0.30;;;0.25;;
21905;SDS011;11117;48.644;9.006;2023-05-10T10:06:20;0.28;;;0.20;;
21905;SDS011;11117;48.644;9.006;2023-05-10T10:08:45;2.10;;;0.20;;
21905;SDS011;11117;48.644;9.006;2023-05-10T10:11:11;1.05;;;0.30;;
21905;SDS011;11117;48.644;9.006;2023-05-10T10:13:37;0.95;;;0.30;;
21905;SDS011;11117;48.644;9.006;2023-05-10T10:16:02;1.52;;;0.43;;
21905;SDS011;11117;48.644;9.006;2023-05-10T10:18:28;0.57;;;0.40;;
21905;SDS011;11117;48.644;9.006;2023-05-10T10:20:55;1.13;;;0.35;;
21905;SDS011;11117;48.644;9.006;2023-05-10T10:23:21;0.70;;;0.30;;
21905;SDS011;11117;48.644;9.006;2023-05-10T10:25:47;2.00;;;0.30;;
21905;SDS011;11117;48.644;9.006;2023-05-10T10:30:48;2.05;;;0.40;;
21905;SDS011;11117;48.644;9.006;2023-05-10T10:36:15;2.40;;;0.30;;
21905;SDS011;11117;48.644;9.006;2023-05-10T10:49:32;0.63;;;0.57;;
21905;SDS011;11117;48.644;9.006;2023-05-10T10:57:28;4.53;;;0.38;;
21905;SDS011;11117;48.644;9.006;2023-05-10T11:05:37;1.30;;;0.40;;
21905;SDS011;11117;48.644;9.006;2023-05-10T11:08:16;1.17;;;0.40;;
21905;SDS011;11117;48.644;9.006;2023-05-10T11:10:49;1.70;;;0.43;;
21905;SDS011;11117;48.644;9.006;2023-05-10T11:13:16;3.40;;;0.40;;
21905;SDS011;11117;48.644;9.006;2023-05-10T11:15:52;1.90;;;0.30;;
21905;SDS011;11117;48.644;9.006;2023-05-10T11:18:18;3.97;;;0.53;;
21905;SDS011;11117;48.644;9.006;2023-05-10T11:23:20;2.30;;;0.40;;
21905;SDS011;11117;48.644;9.006;2023-05-10T11:25:46;3.27;;;0.50;;
21905;SDS011;11117;48.644;9.006;2023-05-10T11:28:14;1.43;;;0.40;;
21905;SDS011;11117;48.644;9.006;2023-05-10T11:30:42;2.50;;;0.60;;
21905;SDS011;11117;48.644;9.006;2023-05-10T11:33:09;2.87;;;0.50;;
21905;SDS011;11117;48.644;9.006;2023-05-10T11:35:39;5.95;;;0.68;;
21905;SDS011;11117;48.644;9.006;2023-05-10T11:38:09;1.40;;;0.60;;
21905;SDS011;11117;48.644;9.006;2023-05-10T11:40:35;1.75;;;0.50;;
21905;SDS011;11117;48.644;9.006;2023-05-10T11:43:02;1.73;;;0.47;;
21905;SDS011;11117;48.644;9.006;2023-05-10T11:45:28;2.60;;;0.52;;
21905;SDS011;11117;48.644;9.006;2023-05-10T11:47:57;0.93;;;0.50;;
21905;SDS011;11117;48.644;9.006;2023-05-10T11:50:23;7.05;;;0.93;;
21905;SDS011;11117;48.644;9.006;2023-05-10T11:52:55;1.73;;;0.60;;
21905;SDS011;11117;48.644;9.006;2023-05-10T11:55:21;3.03;;;0.40;;
21905;SDS011;11117;48.644;9.006;2023-05-10T11:57:47;3.40;;;0.70;;
21905;SDS011;11117;48.644;9.006;2023-05-10T12:00:17;6.82;;;0.95;;
21905;SDS011;11117;48.644;9.006;2023-05-10T12:02:43;2.92;;;1.00;;
21905;SDS011;11117;48.644;9.006;2023-05-10T12:05:08;20.85;;;1.30;;
21905;SDS011;11117;48.644;9.006;2023-05-10T12:07:35;2.47;;;0.50;;
21905;SDS011;11117;48.644;9.006;2023-05-10T12:10:07;12.57;;;11.38;;
21905;SDS011;11117;48.644;9.006;2023-05-10T12:12:38;41.70;;;32.78;;
21905;SDS011;11117;48.644;9.006;2023-05-10T12:15:26;49.55;;;21.02;;
21905;SDS011;11117;48.644;9.006;2023-05-10T12:17:52;45.63;;;29.45;;
21905;SDS011;11117;48.644;9.006;2023-05-10T12:20:19;11.73;;;6.60;;
21905;SDS011;11117;48.644;9.006;2023-05-10T12:22:52;10.18;;;4.35;;
21905;SDS011;11117;48.644;9.006;2023-05-10T12:25:20;5.40;;;2.85;;
21905;SDS011;11117;48.644;9.006;2023-05-10T12:27:50;12.18;;;4.10;;
21905;SDS011;11117;48.644;9.006;2023-05-10T12:30:29;17.27;;;6.75;;
21905;SDS011;11117;48.644;9.006;2023-05-10T12:33:17;1.40;;;0.60;;
21905;SDS011;11117;48.644;9.006;2023-05-10T12:35:43;5.75;;;1.33;;
21905;SDS011;11117;48.644;9.006;2023-05-10T12:38:29;1.63;;;1.17;;
21905;SDS011;11117;48.644;9.006;2023-05-10T12:40:59;3.85;;;1.10;;
21905;SDS011;11117;48.644;9.006;2023-05-10T12:43:26;8.30;;;2.30;;
21905;SDS011;11117;48.644;9.006;2023-05-10T12:45:52;2.83;;;1.10;;
21905;SDS011;11117;48.644;9.006;2023-05-10T12:48:18;1.95;;;0.60;;
21905;SDS011;11117;48.644;9.006;2023-05-10T12:50:43;8.48;;;1.90;;
21905;SDS011;11117;48.644;9.006;2023-05-10T12:53:09;5.57;;;1.80;;
21905;SDS011;11117;48.644;9.006;2023-05-10T12:55:34;1.40;;;0.75;;
21905;SDS011;11117;48.644;9.006;2023-05-10T12:58:00;3.05;;;0.70;;
21905;SDS011;11117;48.644;9.006;2023-05-10T13:00:26;3.50;;;0.73;;
21905;SDS011;11117;48.644;9.006;2023-05-10T13:02:51;3.50;;;0.60;;
21905;SDS011;11117;48.644;9.006;2023-05-10T13:05:17;2.92;;;0.60;;
21905;SDS011;11117;48.644;9.006;2023-05-10T13:07:42;4.95;;;0.80;;
21905;SDS011;11117;48.644;9.006;2023-05-10T13:10:08;2.72;;;0.50;;
21905;SDS011;11117;48.644;9.006;2023-05-10T13:12:33;3.95;;;0.80;;
21905;SDS011;11117;48.644;9.006;2023-05-10T13:14:59;3.10;;;0.60;;
21905;SDS011;11117;48.644;9.006;2023-05-10T13:17:25;2.65;;;0.73;;
21905;SDS011;11117;48.644;9.006;2023-05-10T13:19:51;2.10;;;0.63;;
21905;SDS011;11117;48.644;9.006;2023-05-10T13:22:16;1.13;;;0.60;;
21905;SDS011;11117;48.644;9.006;2023-05-10T13:24:42;5.45;;;0.70;;
21905;SDS011;11117;48.644;9.006;2023-05-10T13:27:08;1.40;;;0.52;;
21905;SDS011;11117;48.644;9.006;2023-05-10T13:29:34;2.08;;;0.80;;
21905;SDS011;11117;48.644;9.006;2023-05-10T13:31:59;2.15;;;0.65;;
21905;SDS011;11117;48.644;9.006;2023-05-10T13:34:25;2.03;;;0.80;;
21905;SDS011;11117;48.644;9.006;2023-05-10T13:36:51;2.92;;;0.60;;
21905;SDS011;11117;48.644;9.006;2023-05-10T13:39:16;2.92;;;1.10;;
21905;SDS011;11117;48.644;9.006;2023-05-10T13:41:42;4.72;;;1.13;;
21905;SDS011;11117;48.644;9.006;2023-05-10T13:44:07;2.38;;;0.77;;
21905;SDS011;11117;48.644;9.006;2023-05-10T13:46:33;6.38;;;0.80;;
21905;SDS011;11117;48.644;9.006;2023-05-10T13:48:58;4.88;;;0.60;;
21905;SDS011;11117;48.644;9.006;2023-05-10T13:51:24;4.32;;;0.75;;
21905;SDS011;11117;48.644;9.006;2023-05-10T13:53:49;1.05;;;0.52;;
21905;SDS011;11117;48.644;9.006;2023-05-10T13:56:15;5.28;;;0.60;;
21905;SDS011;11117;48.644;9.006;2023-05-10T13:58:40;0.95;;;0.63;;
21905;SDS011;11117;48.644;9.006;2023-05-10T14:01:06;0.98;;;0.63;;
21905;SDS011;11117;48.644;9.006;2023-05-10T14:03:32;3.13;;;0.70;;
21905;SDS011;11117;48.644;9.006;2023-05-10T14:05:57;1.23;;;0.60;;
21905;SDS011;11117;48.644;9.006;2023-05-10T14:08:23;4.78;;;0.70;;
21905;SDS011;11117;48.644;9.006;2023-05-10T14:10:48;5.47;;;0.60;;
21905;SDS011;11117;48.644;9.006;2023-05-10T14:13:14;3.00;;;0.73;;
21905;SDS011;11117;48.644;9.006;2023-05-10T14:15:40;4.25;;;1.42;;
21905;SDS011;11117;48.644;9.006;2023-05-10T14:18:05;4.60;;;1.30;;
21905;SDS011;11117;48.644;9.006;2023-05-10T14:20:31;3.45;;;0.88;;
21905;SDS011;11117;48.644;9.006;2023-05-10T14:22:56;1.50;;;0.60;;
21905;SDS011;11117;48.644;9.006;2023-05-10T14:25:22;3.42;;;0.60;;
21905;SDS011;11117;48.644;9.006;2023-05-10T14:27:48;3.20;;;0.60;;
21905;SDS011;11117;48.644;9.006;2023-05-10T14:30:14;3.03;;;0.80;;
21905;SDS011;11117;48.644;9.006;2023-05-10T14:32:39;5.22;;;0.90;;
21905;SDS011;11117;48.644;9.006;2023-05-10T14:35:05;2.05;;;0.40;;
21905;SDS011;11117;48.644;9.006;2023-05-10T14:37:31;4.57;;;0.55;;
21905;SDS011;11117;48.644;9.006;2023-05-10T14:39:56;1.35;;;0.60;;
21905;SDS011;11117;48.644;9.006;2023-05-10T14:42:22;4.28;;;0.57;;
21905;SDS011;11117;48.644;9.006;2023-05-10T14:44:47;3.05;;;0.60;;
21905;SDS011;11117;48.644;9.006;2023-05-10T14:47:13;3.00;;;0.50;;
21905;SDS011;11117;48.644;9.006;2023-05-10T14:49:38;5.90;;;0.55;;
21905;SDS011;11117;48.644;9.006;2023-05-10T14:52:06;5.03;;;0.50;;
21905;SDS011;11117;48.644;9.006;2023-05-10T14:54:31;0.80;;;0.38;;
21905;SDS011;11117;48.644;9.006;2023-05-10T14:56:57;1.60;;;0.40;;
21905;SDS011;11117;48.644;9.006;2023-05-10T14:59:22;1.85;;;0.60;;
21905;SDS011;11117;48.644;9.006;2023-05-10T15:01:48;0.65;;;0.40;;
21905;SDS011;11117;48.644;9.006;2023-05-10T15:04:13;2.60;;;0.60;;
21905;SDS011;11117;48.644;9.006;2023-05-10T15:06:39;1.52;;;0.68;;
21905;SDS011;11117;48.644;9.006;2023-05-10T15:09:05;1.15;;;0.60;;
21905;SDS011;11117;48.644;9.006;2023-05-10T15:11:30;0.52;;;0.30;;
21905;SDS011;11117;48.644;9.006;2023-05-10T15:13:56;4.85;;;0.57;;
21905;SDS011;11117;48.644;9.006;2023-05-10T15:16:21;0.60;;;0.40;;
21905;SDS011;11117;48.644;9.006;2023-05-10T15:18:47;1.77;;;0.55;;
21905;SDS011;11117;48.644;9.006;2023-05-10T15:21:13;1.60;;;0.32;;
21905;SDS011;11117;48.644;9.006;2023-05-10T15:23:38;0.70;;;0.20;;
21905;SDS011;11117;48.644;9.006;2023-05-10T15:26:04;1.27;;;0.50;;
21905;SDS011;11117;48.644;9.006;2023-05-10T15:28:30;1.80;;;0.30;;